Mudcat — WCY8255 — position and weather

sailwx.info

Track history (hours):
 
Tides and Currents Weather Stations Pressure Air Temp Water Temp Dewpoint Dewpoint Depression Visibility Wind Speed Wind Dir Waves Ship Positions

Mudcat

Owner: TAURUS MARINE, SAN FRANCISCO, CA. More information available from US FCC via Universal Licensing System and Coast Guard Vessel Documentation Center.

Last reported at 2015-Aug-01 12:51 UTC. Time now 2015-Aug-04 11:44 UTC.
Position N 47°39' W 122°20'.

Length 22 m; draft 2 m.

Type: Tug. MMSI: 366969750.

Date/timePositionNaut miles runAvg speedWind from/ knotsBaromVisibWave heightAir tempDewpointWater temp
2015-Aug-01 12:51N 47°39' W 122°20'1 4.4
2015-Aug-01 12:33N 47°39' W 122°22'0 5.5
2015-Aug-01 12:31N 47°40' W 122°22'2 2.5
2015-Aug-01 11:33N 47°38' W 122°25'0 8.1
2015-Aug-01 11:31N 47°37' W 122°24'5 5.2
2015-Aug-01 10:33N 47°33' W 122°20'0 3.2
2015-Aug-01 10:31N 47°33' W 122°20'7 7.3
2015-Aug-01 09:33N 47°39' W 122°26'0 8.0
2015-Aug-01 09:31N 47°39' W 122°27'3 2.9
2015-Aug-01 08:33N 47°40' W 122°22'0 5.0
2015-Aug-01 08:31N 47°39' W 122°22'4 4.2
2015-Aug-01 07:30N 47°39' W 122°16'0 3.0
2015-Aug-01 07:20N 47°39' W 122°15'2 2.3
2015-Aug-01 06:27N 47°39' W 122°18'1 4.0
2015-Aug-01 06:11N 47°39' W 122°20'0 4.8
2015-Aug-01 06:06N 47°39' W 122°20'1 2.4
2015-Aug-01 05:33N 47°39' W 122°22'2 1.9
2015-Aug-01 04:33N 47°40' W 122°24'0 3.8
2015-Aug-01 04:31N 47°40' W 122°24'2 1.7
2015-Aug-01 03:33N 47°39' W 122°22'0 3.5
2015-Aug-01 03:30N 47°39' W 122°22'3 3.2
2015-Aug-01 02:33N 47°39' W 122°17'1 1.8
2015-Aug-01 01:45N 47°39' W 122°15'2 6.0
2015-Aug-01 01:25N 47°39' W 122°18'0 0.0
2015-Aug-01 01:25N 47°39' W 122°18'2 1.9
2015-Aug-01 00:33N 47°39' W 122°20'0 0.0
2015-Aug-01 00:30N 47°39' W 122°20'  
Track history (hours):
 
Tides and Currents Weather Stations Pressure Air Temp Water Temp Dewpoint Dewpoint Depression Visibility Wind Speed Wind Dir Waves Ship Positions

Mudcat

Owner: TAURUS MARINE, SAN FRANCISCO, CA. More information available from US FCC via Universal Licensing System and Coast Guard Vessel Documentation Center.

Last reported at 2015-Aug-01 12:51 UTC. Time now 2015-Aug-04 11:44 UTC.
Position N 47°39' W 122°20'.

Length 22 m; draft 2 m.

Type: Tug. MMSI: 366969750.

Date/timePositionNaut miles runAvg speedWind from/ knotsBaromVisibWave heightAir tempDewpointWater temp
2015-Aug-01 12:51N 47°39' W 122°20'1 4.4
2015-Aug-01 12:33N 47°39' W 122°22'0 5.5
2015-Aug-01 12:31N 47°40' W 122°22'2 2.5
2015-Aug-01 11:33N 47°38' W 122°25'0 8.1
2015-Aug-01 11:31N 47°37' W 122°24'5 5.2
2015-Aug-01 10:33N 47°33' W 122°20'0 3.2
2015-Aug-01 10:31N 47°33' W 122°20'7 7.3
2015-Aug-01 09:33N 47°39' W 122°26'0 8.0
2015-Aug-01 09:31N 47°39' W 122°27'3 2.9
2015-Aug-01 08:33N 47°40' W 122°22'0 5.0
2015-Aug-01 08:31N 47°39' W 122°22'4 4.2
2015-Aug-01 07:30N 47°39' W 122°16'0 3.0
2015-Aug-01 07:20N 47°39' W 122°15'2 2.3
2015-Aug-01 06:27N 47°39' W 122°18'1 4.0
2015-Aug-01 06:11N 47°39' W 122°20'0 4.8
2015-Aug-01 06:06N 47°39' W 122°20'1 2.4
2015-Aug-01 05:33N 47°39' W 122°22'2 1.9
2015-Aug-01 04:33N 47°40' W 122°24'0 3.8
2015-Aug-01 04:31N 47°40' W 122°24'2 1.7
2015-Aug-01 03:33N 47°39' W 122°22'0 3.5
2015-Aug-01 03:30N 47°39' W 122°22'3 3.2
2015-Aug-01 02:33N 47°39' W 122°17'1 1.8
2015-Aug-01 01:45N 47°39' W 122°15'2 6.0
2015-Aug-01 01:25N 47°39' W 122°18'0 0.0
2015-Aug-01 01:25N 47°39' W 122°18'2 1.9
2015-Aug-01 00:33N 47°39' W 122°20'0 0.0
2015-Aug-01 00:30N 47°39' W 122°20'  

Dump ship's entire track history